Nikep, Maryland
Current Conditions -  °F | °C
As of 7:34 AM on Thursday 23 Oct 2014 (Local Time) from KCBE Reporting Station
Overcast Overcast  
Wind Chill: 50°   Ceiling: 2500
Heat Index: 50°   Visibility: 10mi
Dew Point: 41°   Wind: 15mph
Humidity: 71%   Direction: 320°NW
Pressure: 30.07"   Gusts: 21mph
Location:  39.5506°N, 78.9975°W
Report Text: KCBE 231134Z AUTO 32013G18KT 10SM BKN025 OVC030 10/05 A3007 RMK AO1
Loading
Personal Weather Stations






























Interactive Weather Map
Tropical Storm Tracking
New forecast layout! Learn more

10-Day Weather Forecast

Advertisements
Track Severe Weather on mobile